Time;durP1;ratioP1;P1;durP2;ratioP2;P2;SDS_P1;SDS_P2;PMS_P1;PMS_P2;Temp;Humidity;BMP_temperature;BMP_pressure;BME280_temperature;BME280_humidity;BME280_pressure;Samples;Min_cycle;Max_cycle;Signal;HPM_P1;HPM_P2
2022/03/02 00:02:21;;;;;;;;;;;12.90;88.60;;;;;;5085152;28;19928;-66
2022/03/02 00:04:47;;;;;;;;;;;12.80;88.50;;;;;;5116318;28;19923;-67
2022/03/02 00:07:13;;;;;;;;;;;;;;;;;;5112821;28;20086;-65
2022/03/02 00:09:38;;;;;;;;;;;12.80;88.40;;;;;;5106977;28;19963;-66
2022/03/02 00:12:04;;;;;;;;;;;13.00;88.60;;;;;;5114216;28;19927;-66
2022/03/02 00:14:30;;;;;;;;;;;12.70;88.30;;;;;;5114812;27;20423;-66
2022/03/02 00:16:55;;;;;;;;;;;12.80;88.40;;;;;;5127046;27;20377;-67
2022/03/02 00:19:21;;;;;;;;;;;12.60;88.20;;;;;;5096667;28;19920;-67
2022/03/02 00:21:47;;;;;;;;;;;13.10;88.40;;;;;;5105364;28;20421;-67
2022/03/02 00:24:12;;;;;;;;;;;13.00;88.40;;;;;;5130429;27;19927;-66
2022/03/02 00:26:38;;;;;;;;;;;12.80;88.20;;;;;;5099120;27;19973;-66
2022/03/02 00:29:05;;;;;;;;;;;12.80;88.10;;;;;;5097845;28;20304;-66
2022/03/02 00:31:30;;;;;;;;;;;13.10;88.30;;;;;;5111929;28;19924;-66
2022/03/02 00:33:56;;;;;;;;;;;13.00;88.30;;;;;;5104253;28;19931;-66
2022/03/02 00:36:21;;;;;;;;;;;12.70;88.00;;;;;;5086203;28;19923;-66
2022/03/02 00:38:47;;;;;;;;;;;12.70;88.00;;;;;;5115096;28;19931;-67
2022/03/02 00:41:13;;;;;;;;;;;12.90;88.00;;;;;;5116944;27;19928;-66
2022/03/02 00:43:38;;;;;;;;;;;12.80;88.00;;;;;;5115568;28;20019;-66
2022/03/02 00:46:04;;;;;;;;;;;13.00;88.10;;;;;;5113039;28;20372;-66
2022/03/02 00:48:29;;;;;;;;;;;12.70;87.90;;;;;;5115393;28;20417;-66
2022/03/02 00:50:55;;;;;;;;;;;12.80;87.80;;;;;;5114986;28;19981;-67
2022/03/02 00:53:21;;;;;;;;;;;13.10;87.90;;;;;;5107577;28;19924;-66
2022/03/02 00:55:46;;;;;;;;;;;13.00;87.80;;;;;;5101367;28;19930;-67
2022/03/02 00:58:12;;;;;;;;;;;12.70;87.70;;;;;;5102499;28;20374;-66
2022/03/02 01:00:38;;;;;;;;;;;;;;;;;;5076252;28;19924;-67
2022/03/02 01:03:04;;;;;;;;;;;;;;;;;;5081634;27;19967;-65
2022/03/02 01:05:30;;;;;;;;;;;12.70;87.60;;;;;;5135974;27;19930;-66
2022/03/02 01:07:55;;;;;;;;;;;12.70;87.70;;;;;;5097951;27;20289;-67
2022/03/02 01:10:21;;;;;;;;;;;12.90;87.70;;;;;;5094558;28;19925;-66
2022/03/02 01:12:47;;;;;;;;;;;12.80;87.70;;;;;;5097468;28;19931;-66
2022/03/02 01:15:13;;;;;;;;;;;12.90;87.80;;;;;;5071403;28;19928;-67
2022/03/02 01:17:39;;;;;;;;;;;12.70;87.60;;;;;;5098096;28;19924;-66
2022/03/02 01:20:05;;;;;;;;;;;12.70;87.70;;;;;;5107093;28;20308;-66
2022/03/02 01:22:31;;;;;;;;;;;12.80;87.70;;;;;;5077326;28;19924;-66
2022/03/02 01:24:57;;;;;;;;;;;12.90;87.70;;;;;;5099274;28;20002;-66
2022/03/02 01:27:22;;;;;;;;;;;12.80;87.60;;;;;;5106928;28;19931;-66
2022/03/02 01:29:48;;;;;;;;;;;12.70;87.60;;;;;;5084190;28;20014;-66
2022/03/02 01:32:14;;;;;;;;;;;12.80;87.70;;;;;;5094334;28;19924;-66
2022/03/02 01:34:39;;;;;;;;;;;12.90;87.70;;;;;;5093671;28;19928;-66
2022/03/02 01:37:05;;;;;;;;;;;12.80;87.70;;;;;;5090552;28;20045;-65
2022/03/02 01:39:31;;;;;;;;;;;12.60;87.50;;;;;;5100416;28;19924;-65
2022/03/02 01:41:56;;;;;;;;;;;12.60;87.60;;;;;;5094863;28;20011;-66
2022/03/02 01:44:22;;;;;;;;;;;12.80;87.60;;;;;;5099748;28;19931;-65
2022/03/02 01:46:48;;;;;;;;;;;12.80;87.70;;;;;;5093977;28;19924;-66
2022/03/02 01:49:14;;;;;;;;;;;12.90;87.70;;;;;;5087593;28;19924;-66
2022/03/02 01:51:40;;;;;;;;;;;12.90;87.70;;;;;;5125382;27;19930;-65
2022/03/02 01:54:05;;;;;;;;;;;12.60;87.50;;;;;;5111906;27;19923;-66
2022/03/02 01:56:31;;;;;;;;;;;;;;;;;;5114969;28;19928;-66
2022/03/02 01:58:57;;;;;;;;;;;;;;;;;;5113781;28;19963;-66
2022/03/02 02:01:23;;;;;;;;;;;12.80;87.60;;;;;;5101389;28;20381;-65
2022/03/02 02:03:49;;;;;;;;;;;12.50;87.50;;;;;;5102818;28;19931;-65
2022/03/02 02:06:14;;;;;;;;;;;12.50;87.50;;;;;;5087692;28;20012;-66
2022/03/02 02:08:40;;;;;;;;;;;12.80;87.60;;;;;;5093210;28;20006;-66
2022/03/02 02:11:06;;;;;;;;;;;;;;;;;;5105132;28;19931;-65
2022/03/02 02:13:34;;;;;;;;;;;;;;;;;;5095711;28;19928;-65
2022/03/02 02:16:00;;;;;;;;;;;13.00;87.70;;;;;;5094820;28;19924;-66
2022/03/02 02:18:26;;;;;;;;;;;12.90;87.70;;;;;;5075777;28;20328;-66
2022/03/02 02:20:51;;;;;;;;;;;12.80;87.70;;;;;;5093378;28;19928;-67
2022/03/02 02:23:17;;;;;;;;;;;12.70;87.60;;;;;;5087307;28;19924;-66
2022/03/02 02:25:43;;;;;;;;;;;12.90;87.70;;;;;;5110329;28;19934;-66
2022/03/02 02:28:10;;;;;;;;;;;12.90;87.70;;;;;;5094421;28;19924;-66
2022/03/02 02:30:35;;;;;;;;;;;12.50;87.50;;;;;;5075009;28;20065;-67
2022/03/02 02:33:01;;;;;;;;;;;12.80;87.60;;;;;;5099416;28;19954;-66
2022/03/02 02:35:26;;;;;;;;;;;12.80;87.70;;;;;;5084060;28;19920;-66
2022/03/02 02:37:52;;;;;;;;;;;12.70;87.50;;;;;;5096012;28;20299;-65
2022/03/02 02:40:18;;;;;;;;;;;12.70;87.60;;;;;;5094018;28;19973;-66
2022/03/02 02:42:45;;;;;;;;;;;;;;;;;;5097502;28;19920;-66
2022/03/02 02:45:15;;;;;;;;;;;12.90;87.70;;;;;;5106585;28;19924;-66
2022/03/02 02:47:41;;;;;;;;;;;13.00;87.80;;;;;;5133479;27;19924;-66
2022/03/02 02:50:20;;;;;;;;;;;12.70;87.70;;;;;;5113071;27;19928;-66
2022/03/02 02:52:46;;;;;;;;;;;12.90;87.80;;;;;;5097921;28;19990;-66
2022/03/02 02:55:12;;;;;;;;;;;12.80;87.80;;;;;;5105804;28;19978;-67
2022/03/02 02:57:38;;;;;;;;;;;12.70;87.60;;;;;;5101927;28;20285;-67
2022/03/02 03:00:04;;;;;;;;;;;12.70;87.50;;;;;;5113727;27;19923;-66
2022/03/02 03:02:29;;;;;;;;;;;12.90;87.60;;;;;;5115416;28;19930;-65
2022/03/02 03:04:55;;;;;;;;;;;12.70;87.60;;;;;;5090122;28;20366;-66
2022/03/02 03:07:20;;;;;;;;;;;12.70;87.50;;;;;;5096812;28;20366;-65
2022/03/02 03:09:46;;;;;;;;;;;12.80;87.60;;;;;;5119900;27;19930;-66
2022/03/02 03:12:12;;;;;;;;;;;;;;;;;;5118228;27;19923;-66
2022/03/02 03:14:38;;;;;;;;;;;12.80;87.50;;;;;;5114149;28;19971;-66
2022/03/02 03:17:04;;;;;;;;;;;;;;;;;;5096595;28;19970;-66
2022/03/02 03:19:29;;;;;;;;;;;12.70;87.50;;;;;;5106850;27;19977;-66
2022/03/02 03:21:55;;;;;;;;;;;12.80;87.60;;;;;;5100302;28;19928;-67
2022/03/02 03:24:21;;;;;;;;;;;12.50;87.40;;;;;;5092812;28;19940;-66
2022/03/02 03:26:47;;;;;;;;;;;12.60;87.60;;;;;;5115669;28;19931;-67
2022/03/02 03:29:12;;;;;;;;;;;12.40;87.50;;;;;;5111239;28;20369;-66
2022/03/02 03:31:38;;;;;;;;;;;12.70;87.70;;;;;;5105723;27;19928;-66
2022/03/02 03:34:04;;;;;;;;;;;12.50;87.60;;;;;;5110425;28;20386;-66
2022/03/02 03:36:29;;;;;;;;;;;12.40;87.60;;;;;;5081154;28;20002;-66
2022/03/02 03:38:55;;;;;;;;;;;12.30;87.50;;;;;;5096186;28;20275;-66
2022/03/02 03:41:20;;;;;;;;;;;12.60;87.60;;;;;;5111221;27;20288;-67
2022/03/02 03:43:47;;;;;;;;;;;12.50;87.60;;;;;;5113456;27;20011;-66
2022/03/02 03:46:12;;;;;;;;;;;12.50;87.70;;;;;;5096628;28;19931;-67
2022/03/02 03:48:38;;;;;;;;;;;12.50;87.60;;;;;;5104667;28;20366;-66
2022/03/02 03:51:04;;;;;;;;;;;12.60;87.70;;;;;;5102985;28;20358;-65
2022/03/02 03:53:29;;;;;;;;;;;12.70;87.80;;;;;;5097596;28;19920;-66
2022/03/02 03:55:55;;;;;;;;;;;12.50;87.70;;;;;;5096514;28;19924;-65
2022/03/02 03:58:21;;;;;;;;;;;12.40;87.60;;;;;;5112358;28;19932;-67
2022/03/02 04:00:46;;;;;;;;;;;12.40;87.60;;;;;;5099797;28;19973;-66
2022/03/02 04:03:12;;;;;;;;;;;12.40;87.50;;;;;;5099534;28;19924;-66
2022/03/02 04:05:37;;;;;;;;;;;12.40;87.60;;;;;;5095969;28;19977;-66
2022/03/02 04:08:03;;;;;;;;;;;12.20;87.50;;;;;;5096477;27;20015;-65
2022/03/02 04:10:29;;;;;;;;;;;12.50;87.70;;;;;;5131357;27;20377;-66
2022/03/02 04:12:55;;;;;;;;;;;12.60;87.70;;;;;;5097747;28;19925;-65
2022/03/02 04:15:22;;;;;;;;;;;12.30;87.70;;;;;;5096061;28;20019;-66
2022/03/02 04:17:48;;;;;;;;;;;12.30;87.70;;;;;;5096312;28;20301;-67
2022/03/02 04:20:14;;;;;;;;;;;;;;;;;;5094950;28;19920;-66
2022/03/02 04:22:40;;;;;;;;;;;;;;;;;;5095526;28;19924;-66
2022/03/02 04:25:06;;;;;;;;;;;12.30;87.50;;;;;;5107624;28;19919;-66
2022/03/02 04:27:32;;;;;;;;;;;12.40;87.60;;;;;;5109712;28;19928;-66
2022/03/02 04:29:57;;;;;;;;;;;12.30;87.60;;;;;;5113431;27;20399;-66
2022/03/02 04:32:23;;;;;;;;;;;12.50;87.70;;;;;;5133411;27;19928;-66
2022/03/02 04:34:52;;;;;;;;;;;12.20;87.50;;;;;;5100714;28;19924;-65
2022/03/02 04:37:18;;;;;;;;;;;12.30;87.60;;;;;;5088802;28;19924;-67
2022/03/02 04:39:44;;;;;;;;;;;12.40;87.70;;;;;;5087166;28;19931;-66
2022/03/02 04:42:09;;;;;;;;;;;12.20;87.60;;;;;;5101292;28;19931;-66
2022/03/02 04:44:35;;;;;;;;;;;12.30;87.00;;;;;;5095344;28;19950;-66
2022/03/02 04:47:01;;;;;;;;;;;12.30;87.60;;;;;;5111779;28;20018;-66
2022/03/02 04:49:26;;;;;;;;;;;12.00;87.60;;;;;;5095044;28;19930;-66
2022/03/02 04:51:52;;;;;;;;;;;12.10;87.60;;;;;;5099245;28;20396;-66
2022/03/02 04:57:03;;;;;;;;;;;12.20;87.60;;;;;;5106735;28;19977;-61
2022/03/02 04:59:28;;;;;;;;;;;12.30;87.70;;;;;;5115446;28;19970;-61
2022/03/02 05:01:54;;;;;;;;;;;12.20;87.60;;;;;;5079532;28;19924;-61
2022/03/02 05:04:20;;;;;;;;;;;12.30;87.60;;;;;;5094754;28;19924;-61
2022/03/02 05:06:46;;;;;;;;;;;12.20;87.60;;;;;;5111700;27;19924;-60
2022/03/02 05:09:11;;;;;;;;;;;12.40;87.60;;;;;;5108086;28;19924;-68
2022/03/02 05:11:37;;;;;;;;;;;;;;;;;;5076489;28;20037;-60
2022/03/02 05:14:04;;;;;;;;;;;12.10;87.40;;;;;;5094313;28;19978;-60
2022/03/02 05:16:30;;;;;;;;;;;12.20;87.50;;;;;;5094652;28;20014;-61
2022/03/02 05:18:56;;;;;;;;;;;12.20;87.50;;;;;;5095741;28;20353;-60
2022/03/02 05:21:22;;;;;;;;;;;12.20;87.50;;;;;;5096590;28;20297;-60
2022/03/02 05:23:47;;;;;;;;;;;12.10;87.40;;;;;;5096162;28;19924;-61
2022/03/02 05:26:13;;;;;;;;;;;12.00;87.40;;;;;;5081285;28;19927;-61
2022/03/02 05:28:38;;;;;;;;;;;12.20;87.50;;;;;;5086272;28;19924;-63
2022/03/02 05:31:04;;;;;;;;;;;12.10;87.40;;;;;;5104235;28;19931;-61
2022/03/02 05:33:30;;;;;;;;;;;12.40;87.50;;;;;;5094269;28;19924;-61
2022/03/02 05:35:55;;;;;;;;;;;12.30;87.40;;;;;;5104948;28;19924;-62
2022/03/02 05:38:21;;;;;;;;;;;12.30;87.40;;;;;;5083464;28;19924;-60
2022/03/02 05:40:47;;;;;;;;;;;12.30;87.40;;;;;;5094156;28;20019;-60
2022/03/02 05:43:12;;;;;;;;;;;12.10;87.30;;;;;;5076308;28;20434;-61
2022/03/02 05:45:38;;;;;;;;;;;12.00;87.10;;;;;;5098081;28;19923;-61
2022/03/02 05:48:04;;;;;;;;;;;12.20;87.30;;;;;;5113517;28;20014;-62
2022/03/02 05:50:30;;;;;;;;;;;12.10;87.30;;;;;;5112500;28;20011;-61
2022/03/02 05:52:55;;;;;;;;;;;12.00;87.40;;;;;;5107536;28;20018;-66
2022/03/02 05:55:21;;;;;;;;;;;12.30;87.60;;;;;;5093751;28;20389;-66
2022/03/02 05:57:47;;;;;;;;;;;11.90;87.50;;;;;;5109951;28;20068;-66
2022/03/02 06:00:13;;;;;;;;;;;12.00;87.40;;;;;;5099957;27;19972;-66
2022/03/02 06:02:39;;;;;;;;;;;;;;;;;;5093551;28;19924;-66
2022/03/02 06:05:05;;;;;;;;;;;11.90;87.40;;;;;;5075617;28;19947;-66
2022/03/02 06:07:31;;;;;;;;;;;12.20;87.50;;;;;;5103432;28;19934;-66
2022/03/02 06:09:57;;;;;;;;;;;;;;;;;;5111898;28;19928;-65
2022/03/02 06:12:23;;;;;;;;;;;11.80;87.20;;;;;;5084326;28;19928;-67
2022/03/02 06:14:49;;;;;;;;;;;12.00;87.30;;;;;;5093862;28;19931;-65
2022/03/02 06:17:14;;;;;;;;;;;11.90;87.10;;;;;;5097299;28;19932;-61
2022/03/02 06:19:40;;;;;;;;;;;12.10;87.30;;;;;;5093765;28;19924;-60
2022/03/02 06:22:06;;;;;;;;;;;;;;;;;;5108437;28;19923;-62
2022/03/02 06:24:32;;;;;;;;;;;12.20;86.90;;;;;;5109873;28;19924;-65
2022/03/02 06:26:58;;;;;;;;;;;11.90;87.30;;;;;;5106795;28;20424;-66
2022/03/02 06:29:23;;;;;;;;;;;11.90;87.20;;;;;;5106019;28;20022;-66
2022/03/02 06:31:50;;;;;;;;;;;12.00;87.30;;;;;;5099046;28;19931;-65
2022/03/02 06:34:15;;;;;;;;;;;12.00;87.20;;;;;;5100136;28;19924;-65
2022/03/02 06:36:41;;;;;;;;;;;11.60;87.10;;;;;;5103190;28;20331;-65
2022/03/02 06:39:07;;;;;;;;;;;11.90;87.30;;;;;;5075462;28;19924;-66
2022/03/02 06:41:45;;;;;;;;;;;11.80;87.30;;;;;;5108765;28;19928;-66
2022/03/02 06:44:22;;;;;;;;;;;11.90;87.30;;;;;;5094783;28;20297;-67
2022/03/02 06:46:55;;;;;;;;;;;12.00;87.20;;;;;;5106337;28;19968;-66
2022/03/02 06:49:24;;;;;;;;;;;11.90;87.10;;;;;;5112356;28;20367;-66
2022/03/02 06:51:50;;;;;;;;;;;11.70;87.00;;;;;;5099540;28;19932;-66
2022/03/02 06:54:16;;;;;;;;;;;12.10;87.10;;;;;;5120597;28;19976;-65
2022/03/02 06:56:45;;;;;;;;;;;12.00;87.10;;;;;;5110665;28;19931;-66
2022/03/02 06:59:12;;;;;;;;;;;12.00;87.00;;;;;;5095568;28;19931;-66
2022/03/02 07:01:38;;;;;;;;;;;11.90;86.90;;;;;;5087115;28;19945;-66
2022/03/02 07:04:03;;;;;;;;;;;12.20;87.10;;;;;;5134530;28;20403;-67
2022/03/02 07:06:29;;;;;;;;;;;12.10;86.70;;;;;;5107517;28;19924;-66
2022/03/02 07:08:55;;;;;;;;;;;12.30;86.80;;;;;;5092930;28;19924;-66
2022/03/02 07:11:21;;;;;;;;;;;12.20;86.60;;;;;;5099808;28;19963;-66
2022/03/02 07:13:47;;;;;;;;;;;;;;;;;;5101253;28;19924;-65
2022/03/02 07:16:13;;;;;;;;;;;12.40;86.40;;;;;;5114132;28;19955;-66
2022/03/02 07:18:39;;;;;;;;;;;;;;;;;;5091349;28;20327;-66
2022/03/02 07:21:11;;;;;;;;;;;12.80;86.20;;;;;;5122372;27;19967;-66
2022/03/02 07:23:39;;;;;;;;;;;12.90;86.20;;;;;;5118669;27;19946;-67
2022/03/02 07:26:05;;;;;;;;;;;;;;;;;;5112725;28;19919;-66
2022/03/02 07:28:31;;;;;;;;;;;;;;;;;;5132424;27;19935;-65
2022/03/02 07:31:00;;;;;;;;;;;;;;;;;;5136987;27;19976;-66
2022/03/02 07:33:26;;;;;;;;;;;13.20;85.80;;;;;;5096682;28;19931;-65
2022/03/02 07:35:55;;;;;;;;;;;13.20;85.50;;;;;;5078683;28;19931;-66
2022/03/02 07:38:21;;;;;;;;;;;13.40;85.50;;;;;;5097391;28;19924;-67
2022/03/02 07:40:48;;;;;;;;;;;13.30;85.10;;;;;;5097983;28;19931;-67
2022/03/02 07:43:14;;;;;;;;;;;;;;;;;;5104672;28;19954;-65
2022/03/02 07:45:40;;;;;;;;;;;13.60;84.90;;;;;;5117072;28;19924;-67
2022/03/02 07:48:06;;;;;;;;;;;;;;;;;;5105400;28;20320;-69
2022/03/02 07:50:31;;;;;;;;;;;13.80;84.60;;;;;;5096179;28;20373;-67
2022/03/02 07:52:57;;;;;;;;;;;14.10;84.80;;;;;;5096389;28;19928;-67
2022/03/02 07:55:22;;;;;;;;;;;13.90;84.50;;;;;;5110448;28;19927;-67
2022/03/02 07:57:50;;;;;;;;;;;13.90;84.20;;;;;;5110186;28;20022;-67
2022/03/02 08:00:16;;;;;;;;;;;13.90;84.00;;;;;;5106683;27;20011;-66
2022/03/02 08:02:42;;;;;;;;;;;14.30;84.00;;;;;;5095718;28;19967;-67
2022/03/02 08:05:08;;;;;;;;;;;13.90;83.80;;;;;;5077950;28;19924;-67
2022/03/02 08:07:34;;;;;;;;;;;14.20;83.90;;;;;;5107205;28;19977;-67
2022/03/02 08:10:00;;;;;;;;;;;14.10;83.60;;;;;;5113902;28;19924;-67
2022/03/02 08:12:25;;;;;;;;;;;14.00;83.40;;;;;;5116040;27;19931;-66
2022/03/02 08:14:51;;;;;;;;;;;;;;;;;;5130652;27;19932;-67
2022/03/02 08:17:17;;;;;;;;;;;14.30;83.20;;;;;;5115441;28;19931;-67
2022/03/02 08:19:43;;;;;;;;;;;14.10;83.00;;;;;;5111413;28;19932;-67
2022/03/02 08:22:27;;;;;;;;;;;14.40;83.10;;;;;;5109769;27;19930;-67
2022/03/02 08:25:07;;;;;;;;;;;14.40;82.90;;;;;;5100175;28;19939;-67
2022/03/02 08:27:33;;;;;;;;;;;14.30;82.50;;;;;;5102472;28;19928;-68
2022/03/02 08:29:58;;;;;;;;;;;14.30;82.00;;;;;;5094123;28;19932;-67
2022/03/02 08:32:24;;;;;;;;;;;14.50;82.60;;;;;;5086372;28;19977;-67
2022/03/02 08:34:50;;;;;;;;;;;14.70;82.50;;;;;;5101963;28;20436;-67
2022/03/02 08:37:17;;;;;;;;;;;14.70;82.30;;;;;;5111919;28;19920;-67
2022/03/02 08:39:43;;;;;;;;;;;14.90;82.30;;;;;;5095447;28;19928;-67
2022/03/02 08:42:09;;;;;;;;;;;14.80;82.20;;;;;;5099947;28;20338;-68
2022/03/02 08:44:35;;;;;;;;;;;14.80;82.20;;;;;;5083841;28;20018;-67
2022/03/02 08:47:01;;;;;;;;;;;14.90;81.90;;;;;;5102663;28;19946;-68
2022/03/02 08:49:26;;;;;;;;;;;14.70;81.90;;;;;;5107139;28;19931;-68
2022/03/02 08:51:52;;;;;;;;;;;15.00;81.90;;;;;;5095283;28;20014;-67
2022/03/02 08:54:18;;;;;;;;;;;;;;;;;;5110477;28;20006;-66
2022/03/02 08:56:44;;;;;;;;;;;14.80;81.80;;;;;;5099745;28;19963;-67
2022/03/02 08:59:13;;;;;;;;;;;14.90;81.70;;;;;;5093120;28;19982;-67
2022/03/02 09:01:41;;;;;;;;;;;14.90;81.70;;;;;;5100564;28;19924;-67
2022/03/02 09:04:07;;;;;;;;;;;14.90;81.80;;;;;;5105086;28;19976;-67
2022/03/02 09:06:33;;;;;;;;;;;;;;;;;;5076114;28;19928;-67
2022/03/02 09:08:59;;;;;;;;;;;15.00;81.70;;;;;;5106162;28;20445;-67
2022/03/02 09:11:24;;;;;;;;;;;14.90;81.40;;;;;;5113599;28;20010;-67
2022/03/02 09:13:50;;;;;;;;;;;15.20;81.60;;;;;;5102696;28;20020;-67
2022/03/02 09:16:16;;;;;;;;;;;;;;;;;;5096984;28;19931;-66
2022/03/02 09:18:41;;;;;;;;;;;15.00;81.70;;;;;;5094511;28;20370;-67
2022/03/02 09:21:07;;;;;;;;;;;15.00;81.70;;;;;;5096469;27;19971;-66
2022/03/02 09:23:40;;;;;;;;;;;15.00;81.70;;;;;;5118551;27;19924;-67
2022/03/02 09:26:06;;;;;;;;;;;;;;;;;;5111444;28;20007;-67
2022/03/02 09:28:33;;;;;;;;;;;14.80;81.30;;;;;;5094745;28;20355;-66
2022/03/02 09:31:02;;;;;;;;;;;15.00;81.40;;;;;;5085629;28;19971;-67
2022/03/02 09:33:28;;;;;;;;;;;14.90;81.40;;;;;;5096733;27;20302;-64
2022/03/02 09:35:53;;;;;;;;;;;14.90;81.30;;;;;;5099608;28;19927;-66
2022/03/02 09:38:20;;;;;;;;;;;14.70;81.30;;;;;;5106853;28;19964;-64
2022/03/02 09:40:46;;;;;;;;;;;15.00;81.40;;;;;;5098180;28;19924;-61
2022/03/02 09:43:12;;;;;;;;;;;;;;;;;;5089909;28;20014;-62
2022/03/02 09:45:38;;;;;;;;;;;14.80;81.50;;;;;;5114467;28;20385;-63
2022/03/02 09:48:04;;;;;;;;;;;14.70;81.60;;;;;;5096123;28;19930;-62
2022/03/02 09:50:31;;;;;;;;;;;14.90;81.30;;;;;;5109803;28;19946;-68
2022/03/02 09:52:59;;;;;;;;;;;14.70;81.60;;;;;;5085412;28;19927;-66
2022/03/02 09:55:25;;;;;;;;;;;14.80;81.70;;;;;;5094656;28;19924;-62
2022/03/02 09:57:54;;;;;;;;;;;14.70;81.80;;;;;;5094447;28;19946;-63
2022/03/02 10:00:20;;;;;;;;;;;14.60;81.70;;;;;;5094234;28;20286;-62
2022/03/02 10:02:46;;;;;;;;;;;14.60;81.90;;;;;;5095094;28;19931;-62
2022/03/02 10:05:14;;;;;;;;;;;14.70;82.00;;;;;;5115181;28;19928;-61
2022/03/02 10:07:46;;;;;;;;;;;14.80;82.00;;;;;;5114055;28;20031;-62
2022/03/02 10:10:17;;;;;;;;;;;14.60;82.10;;;;;;5096848;28;19923;-62
2022/03/02 10:12:43;;;;;;;;;;;14.40;82.00;;;;;;5114050;28;19923;-61
2022/03/02 10:15:13;;;;;;;;;;;14.80;82.10;;;;;;5105666;28;19943;-61
2022/03/02 10:17:39;;;;;;;;;;;14.40;82.10;;;;;;5102649;28;19943;-63
2022/03/02 10:20:08;;;;;;;;;;;14.80;82.30;;;;;;5106768;28;19924;-64
2022/03/02 10:22:34;;;;;;;;;;;;;;;;;;5114051;28;20015;-64
2022/03/02 10:25:01;;;;;;;;;;;14.60;82.20;;;;;;5109285;28;19967;-62
2022/03/02 10:27:32;;;;;;;;;;;14.90;82.40;;;;;;5093588;28;19924;-60
2022/03/02 10:29:58;;;;;;;;;;;;;;;;;;5093583;28;19924;-62
2022/03/02 10:32:24;;;;;;;;;;;14.70;81.80;;;;;;5108206;28;19924;-67
2022/03/02 10:34:50;;;;;;;;;;;14.70;82.20;;;;;;5105687;28;19931;-66
2022/03/02 10:37:19;;;;;;;;;;;14.60;82.20;;;;;;5103636;28;19930;-66
2022/03/02 10:39:49;;;;;;;;;;;14.60;82.20;;;;;;5112161;28;19974;-64
2022/03/02 10:42:28;;;;;;;;;;;14.80;82.00;;;;;;5110222;28;19927;-62
2022/03/02 10:44:59;;;;;;;;;;;14.70;82.00;;;;;;5098460;28;19931;-63
2022/03/02 10:47:25;;;;;;;;;;;;;;;;;;5104407;28;19928;-64
2022/03/02 10:49:52;;;;;;;;;;;;;;;;;;5078696;28;19930;-62
2022/03/02 10:52:19;;;;;;;;;;;14.70;82.40;;;;;;5104305;28;20322;-62
2022/03/02 10:54:44;;;;;;;;;;;14.50;82.20;;;;;;5079310;28;19930;-62
2022/03/02 10:57:10;;;;;;;;;;;14.40;82.10;;;;;;5113504;27;19923;-62
2022/03/02 10:59:36;;;;;;;;;;;14.40;82.10;;;;;;5120000;27;20431;-66
2022/03/02 11:02:02;;;;;;;;;;;14.60;82.10;;;;;;5081600;28;19928;-65
2022/03/02 11:04:28;;;;;;;;;;;;;;;;;;5097622;28;19920;-65
2022/03/02 11:06:53;;;;;;;;;;;14.30;81.90;;;;;;5097208;28;19931;-65
2022/03/02 11:09:19;;;;;;;;;;;14.70;82.00;;;;;;5108272;28;19923;-65
2022/03/02 11:11:45;;;;;;;;;;;14.70;82.10;;;;;;5098130;28;19931;-65
2022/03/02 11:14:10;;;;;;;;;;;14.80;82.30;;;;;;5099183;28;20027;-65
2022/03/02 11:16:36;;;;;;;;;;;14.60;82.10;;;;;;5099444;28;19969;-65
2022/03/02 11:19:02;;;;;;;;;;;;;;;;;;5069936;28;19928;-65
2022/03/02 11:21:28;;;;;;;;;;;;;;;;;;5096254;28;20335;-65
2022/03/02 11:23:55;;;;;;;;;;;14.70;82.00;;;;;;5114333;28;19927;-66
2022/03/02 11:26:24;;;;;;;;;;;14.70;82.20;;;;;;5115061;28;19924;-66
2022/03/02 11:28:52;;;;;;;;;;;14.70;81.90;;;;;;5098542;28;20309;-65
2022/03/02 11:31:23;;;;;;;;;;;14.90;81.90;;;;;;5116885;28;19969;-65
2022/03/02 11:33:49;;;;;;;;;;;14.70;81.70;;;;;;5117057;28;19924;-66
2022/03/02 11:36:17;;;;;;;;;;;14.90;81.70;;;;;;5114912;28;20288;-66
2022/03/02 11:38:43;;;;;;;;;;;14.90;81.40;;;;;;5114684;28;19936;-66
2022/03/02 11:41:11;;;;;;;;;;;15.00;81.40;;;;;;5062038;28;19924;-67
2022/03/02 11:43:37;;;;;;;;;;;15.20;81.50;;;;;;5078395;28;20340;-65
2022/03/02 11:46:03;;;;;;;;;;;15.00;80.70;;;;;;5079024;28;19928;-66
2022/03/02 11:48:30;;;;;;;;;;;15.00;81.00;;;;;;5096246;28;19936;-66
2022/03/02 11:50:59;;;;;;;;;;;14.90;80.90;;;;;;5096612;28;19936;-66
2022/03/02 11:53:43;;;;;;;;;;;15.40;81.10;;;;;;5096820;28;19920;-66
2022/03/02 11:56:10;;;;;;;;;;;15.00;80.70;;;;;;5082472;28;20003;-67
2022/03/02 11:58:55;;;;;;;;;;;15.00;80.70;;;;;;5116473;28;19920;-66
2022/03/02 12:01:21;;;;;;;;;;;15.00;80.70;;;;;;5114561;28;19923;-66
2022/03/02 12:03:56;;;;;;;;;;;15.40;80.70;;;;;;5116563;28;19975;-66
2022/03/02 12:06:21;;;;;;;;;;;15.20;80.80;;;;;;5116736;28;20338;-66
2022/03/02 12:08:51;;;;;;;;;;;15.20;80.60;;;;;;5097589;28;20048;-66
2022/03/02 12:11:20;;;;;;;;;;;15.20;80.60;;;;;;5078291;28;19924;-66
2022/03/02 12:13:59;;;;;;;;;;;15.50;80.70;;;;;;5069625;28;19931;-66
2022/03/02 12:16:40;;;;;;;;;;;15.50;80.70;;;;;;5096069;28;19931;-66
2022/03/02 12:19:09;;;;;;;;;;;15.30;80.80;;;;;;5096614;28;19931;-66
2022/03/02 12:21:35;;;;;;;;;;;15.50;80.60;;;;;;5095674;28;19924;-67
2022/03/02 12:24:01;;;;;;;;;;;15.60;80.20;;;;;;5098960;28;19931;-66
2022/03/02 12:26:27;;;;;;;;;;;15.70;79.90;;;;;;5095932;28;19977;-66
2022/03/02 12:28:53;;;;;;;;;;;15.50;79.80;;;;;;5104072;28;20330;-66
2022/03/02 12:31:27;;;;;;;;;;;15.70;80.00;;;;;;5100259;28;19924;-66
2022/03/02 12:33:58;;;;;;;;;;;15.90;80.20;;;;;;5095623;28;19949;-66
2022/03/02 12:36:24;;;;;;;;;;;16.10;80.00;;;;;;5095038;28;19924;-66
2022/03/02 12:38:50;;;;;;;;;;;16.60;79.20;;;;;;5106494;28;19930;-68
2022/03/02 12:41:16;;;;;;;;;;;17.40;78.70;;;;;;5082446;28;19923;-67
2022/03/02 12:43:42;;;;;;;;;;;18.10;78.00;;;;;;5104238;28;19928;-67
2022/03/02 12:46:07;;;;;;;;;;;17.80;77.50;;;;;;5060403;28;19930;-67
2022/03/02 12:48:34;;;;;;;;;;;18.30;76.90;;;;;;5095941;28;19924;-67
2022/03/02 12:51:00;;;;;;;;;;;18.40;76.50;;;;;;5081817;28;19969;-67
2022/03/02 12:53:26;;;;;;;;;;;;;;;;;;5097527;28;19928;-67
2022/03/02 12:55:52;;;;;;;;;;;19.30;75.60;;;;;;5114669;28;19930;-67
2022/03/02 12:58:18;;;;;;;;;;;;;;;;;;5097366;28;19924;-67
2022/03/02 13:00:43;;;;;;;;;;;19.80;74.20;;;;;;5110811;28;19998;-67
2022/03/02 13:03:09;;;;;;;;;;;20.00;73.80;;;;;;5076661;28;19924;-67
2022/03/02 13:05:35;;;;;;;;;;;19.90;73.30;;;;;;5089902;28;19931;-67
2022/03/02 13:08:22;;;;;;;;;;;19.70;73.50;;;;;;5094374;28;20374;-67
2022/03/02 13:10:48;;;;;;;;;;;19.10;73.40;;;;;;5060719;28;20424;-67
2022/03/02 13:13:13;;;;;;;;;;;18.70;73.70;;;;;;5067749;27;19940;-67
2022/03/02 13:15:40;;;;;;;;;;;18.50;74.20;;;;;;5113664;28;19926;-67
2022/03/02 13:18:08;;;;;;;;;;;17.90;74.90;;;;;;5100697;28;20069;-67
2022/03/02 13:20:34;;;;;;;;;;;17.50;75.60;;;;;;5095129;28;20023;-67
2022/03/02 13:23:14;;;;;;;;;;;17.00;75.80;;;;;;5117562;27;20022;-67
2022/03/02 13:25:40;;;;;;;;;;;16.70;76.30;;;;;;5135673;27;19920;-67
2022/03/02 13:28:11;;;;;;;;;;;16.70;76.70;;;;;;5135507;27;19924;-67
2022/03/02 13:30:37;;;;;;;;;;;16.40;77.10;;;;;;5117344;27;20295;-67
2022/03/02 13:33:06;;;;;;;;;;;16.20;77.00;;;;;;5126163;27;20005;-61
2022/03/02 13:35:33;;;;;;;;;;;16.20;77.50;;;;;;5106414;28;19928;-62
2022/03/02 13:37:58;;;;;;;;;;;16.00;77.60;;;;;;5091441;28;19920;-61
2022/03/02 13:40:36;;;;;;;;;;;16.00;77.80;;;;;;5107816;28;19924;-62
2022/03/02 13:43:04;;;;;;;;;;;15.90;78.00;;;;;;5101796;28;20034;-63
2022/03/02 13:45:30;;;;;;;;;;;15.70;78.00;;;;;;5093967;28;19928;-63
2022/03/02 13:48:14;;;;;;;;;;;15.80;78.60;;;;;;5104557;28;19924;-63
2022/03/02 13:50:58;;;;;;;;;;;15.50;79.10;;;;;;5099337;28;20258;-62
2022/03/02 13:53:30;;;;;;;;;;;15.60;79.10;;;;;;5102598;27;19924;-62
2022/03/02 13:56:02;;;;;;;;;;;15.30;79.10;;;;;;5098167;28;20299;-66
2022/03/02 13:58:28;;;;;;;;;;;15.40;79.30;;;;;;5093508;28;19927;-66
2022/03/02 14:00:53;;;;;;;;;;;15.30;79.70;;;;;;5094778;28;19924;-66
2022/03/02 14:03:29;;;;;;;;;;;15.10;79.80;;;;;;5076076;28;19920;-66
2022/03/02 14:05:55;;;;;;;;;;;14.80;80.00;;;;;;5093848;28;20033;-66
2022/03/02 14:08:21;;;;;;;;;;;14.90;80.00;;;;;;5093669;28;19972;-65
2022/03/02 14:10:47;;;;;;;;;;;;;;;;;;5092672;28;19931;-65
2022/03/02 14:13:12;;;;;;;;;;;14.90;80.20;;;;;;5094667;28;19924;-66
2022/03/02 14:15:38;;;;;;;;;;;14.90;80.30;;;;;;5078341;28;19938;-66
2022/03/02 14:18:05;;;;;;;;;;;14.80;80.50;;;;;;5114763;28;19924;-65
2022/03/02 14:20:32;;;;;;;;;;;14.70;80.60;;;;;;5114435;28;19930;-66
2022/03/02 14:22:59;;;;;;;;;;;14.70;80.90;;;;;;5114044;28;20401;-66
2022/03/02 14:25:25;;;;;;;;;;;14.70;80.70;;;;;;5114002;28;19973;-66
2022/03/02 14:27:57;;;;;;;;;;;14.80;80.90;;;;;;5096496;28;19923;-66
2022/03/02 14:30:22;;;;;;;;;;;14.50;80.90;;;;;;5101686;28;19928;-66
2022/03/02 14:32:48;;;;;;;;;;;14.40;80.90;;;;;;5097670;28;19970;-66